Woodland Park Weather Observations

home  gauges   today   yesterday   NOAA reports   graphs 
this month    this year    monthly records   extremes  

Observations from 5/20/2018 10:20 pm back to 5/17/2018 10:24 pm half hourly.

 

Observations previous 72 hours
 
Date/Time
MST
 
Temp
°F
App
Temp
°F
Heat
Index
°F
Wind
Chill
°F
Dew
Point
°F
Rel
Hum
%
 
Dir
 
 
Spd
kph
Wind
Gust
kph
 
Speed
MPH
 
Gust
MPH
Press
MSL
in
Rain
Since 12am
in
20/10:20pm 40.5 40.5 40.5 40.2 99 0.0 0.0 30.18 0.04 0 0
20/09:50pm 41.4 41.4 41.4 41.1 99 0.1 1.3 30.17 0.04 0 0
20/09:20pm 41.4 41.4 41.4 41.1 99 0.0 0.0 30.17 0.04 0 0
20/08:50pm 41.5 41.5 41.5 41.3 99 0.0 0.0 30.19 0.04 0 0
20/08:20pm 42.4 42.4 42.4 41.7 97 0.1 0.7 30.19 0.04 0 0
20/07:50pm 44.2 44.2 44.2 41.8 91 0.5 2.7 30.19 0.04 0 0
20/07:20pm 45.1 45.1 45.1 41.8 88 0.1 2.0 30.19 0.04 0 0
20/06:50pm 45.0 45.0 45.0 41.9 89 0.7 2.0 30.17 0.04 0 0
20/06:20pm 44.6 44.6 43.2 41.9 90 3.4 5.4 30.17 0.04 0 0
20/05:50pm 45.0 45.0 43.2 41.3 87 3.8 6.7 30.18 0.04 0 0
20/05:20pm 44.8 44.8 44.8 42.6 92 2.1 4.0 30.18 0.04 0 0
20/04:50pm 43.7 43.7 43.7 43.2 98 1.7 4.0 30.17 0.04 0 0
20/04:20pm 43.2 43.2 43.2 42.6 98 1.7 3.4 30.16 0.04 0 0
20/03:50pm 42.6 42.6 41.2 42.4 99 3.1 6.0 30.14 0.04 0 0
20/03:20pm 43.2 43.2 40.2 42.6 98 4.9 8.7 30.14 0.02 0 0
20/02:50pm 43.7 43.7 40.1 42.1 94 6.1 12.1 30.13 0.02 0 0
20/02:20pm 50.5 50.5 48.6 44.6 80 5.4 10.7 30.11 0.02 0 0
20/01:50pm 50.7 50.7 49.3 44.8 80 4.6 6.7 30.12 0.02 0 0
20/01:20pm 45.9 45.9 43.8 41.3 84 4.3 8.7 30.14 0.02 0 0
20/12:50pm 46.4 46.4 44.0 41.5 83 5.0 9.4 30.15 0.02 0 0
20/12:20pm 49.5 49.5 48.2 42.9 78 4.1 8.1 30.16 0.02 0 0
20/11:50am 51.3 51.3 51.3 42.9 73 2.2 4.7 30.16 0.02 0 0
20/11:20am 51.6 51.6 51.6 39.4 63 1.6 4.7 30.17 0.02 0 0
20/10:50am 50.7 50.7 50.7 38.6 63 1.9 5.4 30.18 0.02 0 0
20/10:20am 46.0 46.0 46.0 40.2 80 2.8 8.7 30.18 0.02 0 0
20/09:50am 42.4 42.4 42.4 41.4 96 1.5 2.7 30.19 0.02 0 0
20/09:20am 41.4 41.4 41.4 41.1 99 1.3 3.4 30.19 0.02 0 0
20/08:50am 38.7 38.7 38.7 38.4 99 1.5 4.7 30.19 0.02 0 0
20/08:20am 37.6 37.6 37.6 37.3 99 2.0 4.0 30.19 0.02 0 0
20/07:50am 35.8 35.8 33.1 35.0 97 3.4 5.4 30.19 0.02 0 0
20/07:20am 36.3 36.3 36.3 35.6 97 1.7 2.7 30.19 0.02 0 0
20/06:50am 36.1 36.1 36.1 35.4 97 1.8 4.0 30.19 0.02 0 0
20/06:20am 35.6 35.6 35.6 34.8 97 0.7 3.4 30.17 0.02 0 0
20/05:50am 35.1 35.1 35.1 34.6 98 0.3 2.0 30.16 0.02 0 0
20/05:20am 35.4 35.4 35.4 34.9 98 0.6 3.4 30.16 0.02 0 0
20/04:50am 35.8 35.8 35.8 35.0 97 0.2 1.3 30.15 0.02 0 0
20/04:20am 35.8 35.8 35.8 35.0 97 1.5 3.4 30.16 0.02 0 0
20/03:50am 35.8 35.8 35.8 35.0 97 1.9 4.0 30.15 0.02 0 0
20/03:23am 36.7 36.7 36.7 35.9 97 0.0 0.0 30.15 0.02 0 0
20/02:53am 36.7 36.7 36.7 35.9 97 0.0 0.0 30.15 0.02 0 0
20/02:23am 36.1 36.1 36.1 35.4 97 0.0 0.0 30.15 0.02 0 0
20/01:53am 36.0 36.0 36.0 35.2 97 0.7 1.3 30.16 0.02 0 0
20/01:23am 36.5 36.5 36.5 35.7 97 0.0 0.0 30.19 0.02 0 0
20/12:53am 36.1 36.1 36.1 35.4 97 0.0 0.0 30.19 0.02 0 0
20/12:23am 36.5 36.5 36.5 35.7 97 0.7 1.3 30.20 0.02 0 0
19/11:53pm 36.7 36.7 36.7 35.9 97 0.0 0.0 30.19 0.35 0 0
19/11:23pm 36.5 36.5 36.5 35.7 97 0.0 0.0 30.20 0.35 0 0
19/10:53pm 36.5 36.5 36.5 35.7 97 0.0 0.0 30.21 0.33 0 0
 
Date/Time
MST
 
Temp
°F
App
Temp
°F
Heat
Index
°F
Wind
Chill
°F
Dew
Point
°F
Rel
Hum
%
 
Dir
 
 
Spd
km/h
Wind
Gust
km/h
 
Speed
MPH
 
Gust
MPH
Press
MSL
in
Rain
Since 9am
in
 
Solar
W/m2
 
UV
Index
19/10:23pm 36.5 36.5 36.5 35.7 97 0.0 0.0 30.20 0.33 0 0
19/10:00pm 35.8 35.8 35.8 35.0 97 0.0 0.7 30.22 0.29 0 0
19/09:30pm 35.8 35.8 35.8 35.0 97 0.2 1.3 30.20 0.28 0 0
19/09:00pm 36.1 36.1 36.1 35.4 97 0.1 2.0 30.18 0.28 0 0
19/08:30pm 36.5 36.5 36.5 35.7 97 0.8 3.4 30.17 0.28 0 0
19/08:00pm 37.0 37.0 37.0 36.3 97 0.2 2.7 30.15 0.28 0 0
19/07:30pm 36.7 36.7 36.7 35.9 97 0.0 1.3 30.17 0.28 0 0
19/07:00pm 36.0 36.0 36.0 35.2 97 0.2 1.3 30.17 0.28 0 0
19/06:30pm 35.8 35.8 35.8 35.0 97 0.2 2.0 30.16 0.28 0 0
19/06:00pm 37.2 37.2 37.2 36.5 97 0.8 4.0 30.16 0.20 0 0
19/05:30pm 37.4 37.4 37.4 37.1 99 1.2 3.4 30.15 0.20 0 0
19/05:00pm 39.0 39.0 39.0 38.8 99 0.5 3.4 30.13 0.20 0 0
19/04:30pm 41.9 41.9 41.9 41.6 99 1.6 5.4 30.12 0.20 0 0
19/04:00pm 41.5 41.5 41.5 41.3 99 1.0 3.4 30.11 0.20 0 0
19/03:30pm 38.8 38.8 38.8 38.6 99 0.9 4.7 30.10 0.20 0 0
19/03:00pm 37.2 37.2 37.2 36.5 97 1.0 3.4 30.15 0.11 0 0
19/02:30pm 42.4 42.4 42.4 36.7 80 2.0 7.4 30.13 0.02 0 0
19/02:00pm 45.7 45.7 45.7 38.6 76 1.3 4.0 30.11 0.02 0 0
19/01:30pm 48.6 48.6 48.6 39.6 71 2.0 6.0 30.09 0.02 0 0
19/01:00pm 49.6 49.6 49.6 40.6 71 2.5 14.1 30.09 0.02 0 0
19/12:24pm 51.4 51.4 51.4 39.3 63 2.7 4.0 30.10 0.02 0 0
19/11:54am 54.0 54.0 54.0 39.5 58 1.3 4.7 30.09 0.02 0 0
19/11:24am 49.5 49.5 49.5 39.0 67 0.7 2.0 30.09 0.02 0 0
19/10:54am 48.2 48.2 48.2 40.6 75 0.7 2.7 30.09 0.02 0 0
19/10:30am 45.9 45.9 45.9 40.0 80 1.6 4.0 30.09 0.02 0 0
19/10:00am 44.6 44.6 44.6 41.9 90 0.5 2.7 30.09 0.02 0 0
19/09:30am 43.2 43.2 43.2 42.6 98 0.5 2.7 30.09 0.02 0 0
19/09:00am 41.4 41.4 41.4 41.1 99 0.5 2.7 30.09 0.02 0 0
19/08:30am 40.6 40.6 40.6 40.4 99 1.0 2.7 30.09 0.02 0 0
19/07:53am 40.8 40.8 40.8 40.6 99 0.7 1.3 30.08 0.02 0 0
19/07:23am 40.1 40.1 40.1 39.8 99 1.3 2.7 30.08 0.02 0 0
19/06:53am 39.9 39.9 39.9 39.7 99 1.3 3.4 30.08 0.02 0 0
19/06:23am 39.7 39.7 39.7 39.5 99 1.3 4.0 30.08 0.02 0 0
19/05:53am 39.7 39.7 39.7 39.5 99 0.0 1.3 30.08 0.02 0 0
19/05:23am 39.6 39.6 39.6 39.3 99 0.7 2.0 30.07 0.02 0 0
19/04:53am 40.1 40.1 40.1 39.8 99 0.0 1.3 30.08 0.02 0 0
19/04:23am 40.3 40.3 40.3 40.0 99 0.0 0.7 30.07 0.00 0 0
19/03:53am 40.3 40.3 40.3 40.0 99 0.0 1.3 30.07 0.00 0 0
19/03:23am 41.0 41.0 41.0 40.7 99 0.7 3.4 30.05 0.00 0 0
19/02:53am 40.8 40.8 40.8 40.6 99 0.0 2.0 30.04 0.00 0 0
19/02:23am 39.7 39.7 39.7 39.0 97 0.0 0.0 30.04 0.00 0 0
19/01:53am 40.5 40.5 40.5 38.6 93 0.0 0.0 30.04 0.00 0 0
19/01:23am 41.7 41.7 41.7 37.5 85 0.0 0.0 30.04 0.00 0 0
19/12:53am 41.9 41.9 41.9 38.3 87 0.0 0.0 30.04 0.00 0 0
19/12:23am 42.8 42.8 42.8 38.0 83 0.7 1.3 30.04 0.00 0 0
18/11:53pm 43.3 43.3 43.3 37.6 80 0.0 2.0 30.03 0.22 0 0
18/11:23pm 42.6 42.6 42.6 38.7 86 0.0 0.0 30.03 0.22 0 0
18/10:53pm 43.3 43.3 43.3 38.2 82 0.0 0.0 30.03 0.22 0 0
 
Date/Time
WST
 
Temp
°F
App
Temp
°F
Heat
Index
°F
Wind
Chill
°F
Dew
Point
°F
Rel
Hum
%
 
Dir
 
 
Spd
km/h
Wind
Gust
km/h
 
Spd
kts
 
Gust
kts
Press
MSL
in
Rain
Since 9am
in
 
Solar
W/m2
 
UV
Index
18/10:23pm 43.2 43.2 43.2 39.0 85 1.3 2.0 30.04 0.22 0 0
18/10:00pm 43.5 43.5 43.5 39.0 84 1.3 6.0 30.04 0.22 0 0
18/09:30pm 44.1 44.1 44.1 41.6 91 1.6 8.1 30.03 0.22 0 0
18/09:00pm 43.0 43.0 43.0 41.4 94 0.0 0.0 30.05 0.22 0 0
18/08:30pm 43.2 43.2 43.2 40.4 90 0.0 0.0 30.05 0.22 0 0
18/08:00pm 43.5 43.5 43.5 40.5 89 0.0 0.0 30.05 0.22 0 0
18/07:30pm 44.4 44.4 44.4 39.9 84 0.5 2.7 30.04 0.22 0 0
18/07:00pm 44.6 44.6 44.6 39.1 81 1.1 3.4 30.03 0.22 0 0
18/06:30pm 45.0 45.0 45.0 40.4 84 1.4 3.4 30.02 0.22 0 0
18/06:00pm 45.1 45.1 45.1 40.0 82 0.5 4.7 30.03 0.22 0 0
18/05:30pm 46.4 46.4 46.4 38.6 74 2.0 8.1 30.00 0.22 0 0
18/05:00pm 45.1 45.1 45.1 39.3 80 2.9 8.1 30.01 0.22 0 0
18/04:30pm 43.3 43.3 43.3 38.8 84 3.0 9.4 30.01 0.22 0 0
18/04:00pm 44.6 44.6 44.6 43.8 97 1.2 4.0 30.06 0.20 0 0
18/03:30pm 46.8 46.8 46.8 46.5 99 0.4 2.7 30.04 0.20 0 0
18/03:00pm 47.8 47.8 47.8 47.6 99 1.3 2.7 30.02 0.20 0 0
18/02:30pm 49.6 49.6 49.6 45.0 84 1.6 5.4 30.01 0.02 0 0
18/02:00pm 54.7 54.7 53.8 41.5 61 4.9 8.7 29.99 0.00 0 0
18/01:30pm 58.1 58.1 57.0 38.5 48 6.7 10.1 29.99 0.00 0 0
18/01:00pm 57.4 57.4 57.4 41.8 56 1.8 6.0 29.99 0.00 0 0
18/12:30pm 57.0 57.0 57.0 39.6 52 0.2 2.0 30.00 0.00 0 0
18/12:00pm 59.7 59.7 59.7 36.6 42 1.0 4.0 30.01 0.00 0 0
18/11:30am 56.5 56.5 56.5 37.6 49 1.0 3.4 30.01 0.00 0 0
18/11:00am 55.8 55.8 55.8 39.4 54 2.7 7.4 30.02 0.00 0 0
18/10:30am 56.1 56.1 56.1 41.1 57 2.2 6.0 30.02 0.00 0 0
18/10:00am 54.5 54.5 54.5 40.9 60 2.2 6.0 30.03 0.00 0 0
18/09:30am 52.7 52.7 52.7 40.9 64 1.3 3.4 30.03 0.00 0 0
18/09:00am 49.8 49.8 49.8 40.8 71 2.6 6.0 30.03 0.00 0 0
18/08:24am 48.7 48.7 48.7 40.8 74 0.0 1.3 30.04 0.00 0 0
18/07:54am 47.3 47.3 47.3 41.1 79 0.7 2.0 30.04 0.00 0 0
18/07:24am 45.0 45.0 45.0 39.8 82 0.0 0.0 30.04 0.00 0 0
18/06:54am 43.5 43.5 43.5 39.3 85 0.7 3.4 30.04 0.00 0 0
18/06:24am 41.9 41.9 41.9 39.5 91 0.0 0.0 30.03 0.00 0 0
18/05:54am 38.8 38.8 38.8 37.3 94 0.0 0.0 30.03 0.00 0 0
18/05:24am 39.7 39.7 39.7 37.0 90 0.0 0.0 30.03 0.00 0 0
18/04:54am 40.6 40.6 40.6 36.5 85 0.0 0.0 30.03 0.00 0 0
18/04:24am 42.6 42.6 42.6 37.2 81 0.7 1.3 30.03 0.00 0 0
18/03:54am 43.9 43.9 43.9 37.5 78 0.7 2.0 30.03 0.00 0 0
18/03:24am 43.5 43.5 43.5 34.0 69 0.0 1.3 30.03 0.00 0 0
18/02:54am 43.5 43.5 43.5 26.1 50 0.0 0.0 30.01 0.00 0 0
18/02:24am 46.9 46.9 46.9 22.6 38 2.0 4.0 30.01 0.00 0 0
18/01:54am 50.9 50.9 50.9 8.8 18 0.0 0.0 29.99 0.00 0 0
18/01:24am 51.1 51.1 51.1 9.0 18 0.0 1.3 30.01 0.00 0 0
18/12:54am 52.9 52.9 52.9 9.2 17 0.0 0.0 30.01 0.00 0 0
18/12:24am 54.7 54.7 54.7 9.3 16 0.0 1.3 30.01 0.00 0 0
17/11:54pm 54.5 54.5 54.5 9.1 16 0.0 0.0 30.01 0.00 0 0
17/11:24pm 56.1 56.1 56.1 11.8 17 0.7 2.0 30.02 0.00 0 0
17/10:54pm 57.0 57.0 57.0 12.6 17 1.3 2.0 30.02 0.00 0 0
17/10:24pm 59.2 59.2 59.2 11.5 15 1.3 4.0 30.03 0.00 0 0
 
Date/Time
MST
 
Temp
°F
App
Temp
°F
Heat
Index
°F
Wind
Chill
°F
Dew
Point
°F
Rel
Hum
%
 
Dir
 
 
Spd
km/h
Wind
Gust
km/h
 
Speed
MPH
 
Gust
MPH
Press
MSL
in
Rain
Since 9am
in
 
Solar
W/m2
 
UV
Index




page updated 5/20/2018 10:20:02 PM
powered by  cumulus v1.9.4 (1099)
cumulus software support forum